sensor_id;sensor_type;location;lat;lon;timestamp;temperature;humidity
810;DHT22;387;48.772;9.186;2023-05-10T00:00:12;14.30;93.90
810;DHT22;387;48.772;9.186;2023-05-10T00:02:37;14.40;93.70
810;DHT22;387;48.772;9.186;2023-05-10T00:05:04;14.40;93.90
810;DHT22;387;48.772;9.186;2023-05-10T00:07:30;14.40;94.30
810;DHT22;387;48.772;9.186;2023-05-10T00:09:56;14.40;94.50
810;DHT22;387;48.772;9.186;2023-05-10T00:12:21;14.40;94.70
810;DHT22;387;48.772;9.186;2023-05-10T00:14:47;14.40;94.40
810;DHT22;387;48.772;9.186;2023-05-10T00:17:13;14.30;93.90
810;DHT22;387;48.772;9.186;2023-05-10T00:19:38;14.20;93.40
810;DHT22;387;48.772;9.186;2023-05-10T00:22:04;14.10;93.20
810;DHT22;387;48.772;9.186;2023-05-10T00:24:30;14.10;92.80
810;DHT22;387;48.772;9.186;2023-05-10T00:26:55;14.10;92.80
810;DHT22;387;48.772;9.186;2023-05-10T00:29:21;14.10;92.60
810;DHT22;387;48.772;9.186;2023-05-10T00:31:46;14.00;92.40
810;DHT22;387;48.772;9.186;2023-05-10T00:34:12;14.10;92.50
810;DHT22;387;48.772;9.186;2023-05-10T00:36:37;14.10;91.60
810;DHT22;387;48.772;9.186;2023-05-10T00:39:03;14.20;91.70
810;DHT22;387;48.772;9.186;2023-05-10T00:41:29;14.20;91.60
810;DHT22;387;48.772;9.186;2023-05-10T00:43:58;14.10;91.40
810;DHT22;387;48.772;9.186;2023-05-10T00:46:23;14.10;91.30
810;DHT22;387;48.772;9.186;2023-05-10T00:48:50;14.00;91.30
810;DHT22;387;48.772;9.186;2023-05-10T00:51:15;14.00;91.40
810;DHT22;387;48.772;9.186;2023-05-10T00:53:41;14.00;91.40
810;DHT22;387;48.772;9.186;2023-05-10T00:56:08;13.90;91.00
810;DHT22;387;48.772;9.186;2023-05-10T00:58:33;14.00;91.00
810;DHT22;387;48.772;9.186;2023-05-10T01:00:59;14.00;90.90
810;DHT22;387;48.772;9.186;2023-05-10T01:03:25;14.00;91.00
810;DHT22;387;48.772;9.186;2023-05-10T01:05:51;13.90;91.10
810;DHT22;387;48.772;9.186;2023-05-10T01:08:17;13.90;91.30
810;DHT22;387;48.772;9.186;2023-05-10T01:10:43;13.90;91.30
810;DHT22;387;48.772;9.186;2023-05-10T01:13:09;13.90;91.10
810;DHT22;387;48.772;9.186;2023-05-10T01:15:35;13.90;90.90
810;DHT22;387;48.772;9.186;2023-05-10T01:18:02;13.90;90.80
810;DHT22;387;48.772;9.186;2023-05-10T01:20:32;13.90;91.00
810;DHT22;387;48.772;9.186;2023-05-10T01:26:20;13.70;90.80
810;DHT22;387;48.772;9.186;2023-05-10T01:29:12;13.80;91.10
810;DHT22;387;48.772;9.186;2023-05-10T01:34:22;13.70;90.60
810;DHT22;387;48.772;9.186;2023-05-10T01:37:06;13.70;90.50
810;DHT22;387;48.772;9.186;2023-05-10T01:42:16;13.70;90.40
810;DHT22;387;48.772;9.186;2023-05-10T01:44:49;13.70;90.50
810;DHT22;387;48.772;9.186;2023-05-10T01:47:37;13.80;90.80
810;DHT22;387;48.772;9.186;2023-05-10T01:50:06;13.80;90.50
810;DHT22;387;48.772;9.186;2023-05-10T01:52:41;13.80;90.00
810;DHT22;387;48.772;9.186;2023-05-10T01:55:11;13.70;90.00
810;DHT22;387;48.772;9.186;2023-05-10T01:57:38;13.60;90.30
810;DHT22;387;48.772;9.186;2023-05-10T02:00:07;13.60;90.60
810;DHT22;387;48.772;9.186;2023-05-10T02:02:37;13.60;90.70
810;DHT22;387;48.772;9.186;2023-05-10T02:05:05;13.50;90.80
810;DHT22;387;48.772;9.186;2023-05-10T02:07:35;13.60;90.90
810;DHT22;387;48.772;9.186;2023-05-10T02:10:02;13.60;90.90
810;DHT22;387;48.772;9.186;2023-05-10T02:12:30;13.60;91.20
810;DHT22;387;48.772;9.186;2023-05-10T02:14:57;13.70;90.90
810;DHT22;387;48.772;9.186;2023-05-10T02:17:25;13.70;90.70
810;DHT22;387;48.772;9.186;2023-05-10T02:19:51;13.70;90.80
810;DHT22;387;48.772;9.186;2023-05-10T02:22:19;13.70;90.80
810;DHT22;387;48.772;9.186;2023-05-10T02:24:45;13.60;90.70
810;DHT22;387;48.772;9.186;2023-05-10T02:27:12;13.60;90.60
810;DHT22;387;48.772;9.186;2023-05-10T02:29:39;13.60;90.50
810;DHT22;387;48.772;9.186;2023-05-10T02:32:06;13.60;90.70
810;DHT22;387;48.772;9.186;2023-05-10T02:34:32;13.60;90.70
810;DHT22;387;48.772;9.186;2023-05-10T02:36:58;13.60;90.80
810;DHT22;387;48.772;9.186;2023-05-10T02:39:25;13.60;90.70
810;DHT22;387;48.772;9.186;2023-05-10T02:41:53;13.50;90.70
810;DHT22;387;48.772;9.186;2023-05-10T02:44:22;13.50;90.80
810;DHT22;387;48.772;9.186;2023-05-10T02:46:49;13.50;90.70
810;DHT22;387;48.772;9.186;2023-05-10T02:49:15;13.50;90.80
810;DHT22;387;48.772;9.186;2023-05-10T02:51:44;13.50;90.80
810;DHT22;387;48.772;9.186;2023-05-10T02:54:18;13.50;90.80
810;DHT22;387;48.772;9.186;2023-05-10T02:56:49;13.50;90.90
810;DHT22;387;48.772;9.186;2023-05-10T02:59:16;13.50;91.00
810;DHT22;387;48.772;9.186;2023-05-10T03:01:42;13.50;91.10
810;DHT22;387;48.772;9.186;2023-05-10T03:04:07;13.50;91.20
810;DHT22;387;48.772;9.186;2023-05-10T03:06:33;13.60;91.10
810;DHT22;387;48.772;9.186;2023-05-10T03:08:59;13.60;90.90
810;DHT22;387;48.772;9.186;2023-05-10T03:11:46;13.60;90.60
810;DHT22;387;48.772;9.186;2023-05-10T03:14:27;13.70;90.50
810;DHT22;387;48.772;9.186;2023-05-10T03:17:04;13.70;90.60
810;DHT22;387;48.772;9.186;2023-05-10T03:19:40;13.70;90.70
810;DHT22;387;48.772;9.186;2023-05-10T03:22:10;13.70;90.90
810;DHT22;387;48.772;9.186;2023-05-10T03:24:36;13.70;90.50
810;DHT22;387;48.772;9.186;2023-05-10T03:27:05;13.70;90.60
810;DHT22;387;48.772;9.186;2023-05-10T03:29:31;13.70;90.70
810;DHT22;387;48.772;9.186;2023-05-10T03:31:59;13.60;90.70
810;DHT22;387;48.772;9.186;2023-05-10T03:34:25;13.60;90.90
810;DHT22;387;48.772;9.186;2023-05-10T03:36:51;13.70;91.00
810;DHT22;387;48.772;9.186;2023-05-10T03:39:16;13.60;90.50
810;DHT22;387;48.772;9.186;2023-05-10T03:41:42;13.60;90.60
810;DHT22;387;48.772;9.186;2023-05-10T03:44:08;13.60;90.70
810;DHT22;387;48.772;9.186;2023-05-10T03:46:33;13.60;90.80
810;DHT22;387;48.772;9.186;2023-05-10T03:48:59;13.50;90.90
810;DHT22;387;48.772;9.186;2023-05-10T03:51:24;13.50;91.20
810;DHT22;387;48.772;9.186;2023-05-10T03:53:53;13.50;90.60
810;DHT22;387;48.772;9.186;2023-05-10T03:56:19;13.50;90.80
810;DHT22;387;48.772;9.186;2023-05-10T03:58:46;13.50;91.10
810;DHT22;387;48.772;9.186;2023-05-10T04:01:11;13.60;91.30
810;DHT22;387;48.772;9.186;2023-05-10T04:03:37;13.50;91.00
810;DHT22;387;48.772;9.186;2023-05-10T04:06:04;13.50;91.00
810;DHT22;387;48.772;9.186;2023-05-10T04:08:30;13.40;91.20
810;DHT22;387;48.772;9.186;2023-05-10T04:11:08;13.40;91.50
810;DHT22;387;48.772;9.186;2023-05-10T04:13:34;13.30;91.20
810;DHT22;387;48.772;9.186;2023-05-10T04:16:00;13.30;91.40
810;DHT22;387;48.772;9.186;2023-05-10T04:18:26;13.30;91.50
810;DHT22;387;48.772;9.186;2023-05-10T04:20:51;13.40;91.20
810;DHT22;387;48.772;9.186;2023-05-10T04:23:17;13.40;91.10
810;DHT22;387;48.772;9.186;2023-05-10T04:25:43;13.40;91.10
810;DHT22;387;48.772;9.186;2023-05-10T04:28:08;13.40;91.20
810;DHT22;387;48.772;9.186;2023-05-10T04:30:34;13.40;90.90
810;DHT22;387;48.772;9.186;2023-05-10T04:33:00;13.40;91.00
810;DHT22;387;48.772;9.186;2023-05-10T04:35:27;13.40;91.00
810;DHT22;387;48.772;9.186;2023-05-10T04:37:53;13.50;91.10
810;DHT22;387;48.772;9.186;2023-05-10T04:40:19;13.50;90.80
810;DHT22;387;48.772;9.186;2023-05-10T04:42:45;13.50;90.80
810;DHT22;387;48.772;9.186;2023-05-10T04:45:11;13.50;90.60
810;DHT22;387;48.772;9.186;2023-05-10T04:47:37;13.50;90.60
810;DHT22;387;48.772;9.186;2023-05-10T04:50:03;13.60;90.60
810;DHT22;387;48.772;9.186;2023-05-10T04:52:29;13.60;90.40
810;DHT22;387;48.772;9.186;2023-05-10T04:54:55;13.60;90.50
810;DHT22;387;48.772;9.186;2023-05-10T04:57:20;13.60;90.40
810;DHT22;387;48.772;9.186;2023-05-10T04:59:46;13.60;90.60
810;DHT22;387;48.772;9.186;2023-05-10T05:02:12;13.60;90.40
810;DHT22;387;48.772;9.186;2023-05-10T05:04:37;13.60;90.40
810;DHT22;387;48.772;9.186;2023-05-10T05:07:03;13.60;90.40
810;DHT22;387;48.772;9.186;2023-05-10T05:09:29;13.70;90.40
810;DHT22;387;48.772;9.186;2023-05-10T05:11:54;13.70;90.20
810;DHT22;387;48.772;9.186;2023-05-10T05:14:20;13.70;89.90
810;DHT22;387;48.772;9.186;2023-05-10T05:16:50;13.70;90.00
810;DHT22;387;48.772;9.186;2023-05-10T05:19:16;13.70;90.00
810;DHT22;387;48.772;9.186;2023-05-10T05:21:42;13.80;90.00
810;DHT22;387;48.772;9.186;2023-05-10T05:24:07;13.80;89.90
810;DHT22;387;48.772;9.186;2023-05-10T05:26:33;14.00;89.70
810;DHT22;387;48.772;9.186;2023-05-10T05:28:59;14.00;88.40
810;DHT22;387;48.772;9.186;2023-05-10T05:31:25;14.00;88.40
810;DHT22;387;48.772;9.186;2023-05-10T05:33:50;14.10;88.40
810;DHT22;387;48.772;9.186;2023-05-10T05:36:16;14.20;88.40
810;DHT22;387;48.772;9.186;2023-05-10T05:38:42;14.30;87.30
810;DHT22;387;48.772;9.186;2023-05-10T05:41:08;14.10;87.30
810;DHT22;387;48.772;9.186;2023-05-10T05:43:33;14.10;88.10
810;DHT22;387;48.772;9.186;2023-05-10T05:45:59;14.00;88.60
810;DHT22;387;48.772;9.186;2023-05-10T05:48:26;14.00;88.40
810;DHT22;387;48.772;9.186;2023-05-10T05:50:55;14.10;88.70
810;DHT22;387;48.772;9.186;2023-05-10T05:53:24;14.00;88.30
810;DHT22;387;48.772;9.186;2023-05-10T05:55:57;14.00;88.70
810;DHT22;387;48.772;9.186;2023-05-10T05:58:27;14.10;88.30
810;DHT22;387;48.772;9.186;2023-05-10T06:00:53;14.10;88.30
810;DHT22;387;48.772;9.186;2023-05-10T06:03:19;14.10;88.40
810;DHT22;387;48.772;9.186;2023-05-10T06:05:45;14.20;88.00
810;DHT22;387;48.772;9.186;2023-05-10T06:08:10;14.20;88.10
810;DHT22;387;48.772;9.186;2023-05-10T06:10:36;14.30;87.70
810;DHT22;387;48.772;9.186;2023-05-10T06:13:02;14.30;87.40
810;DHT22;387;48.772;9.186;2023-05-10T06:15:28;14.40;87.60
810;DHT22;387;48.772;9.186;2023-05-10T06:17:53;14.50;87.60
810;DHT22;387;48.772;9.186;2023-05-10T06:20:19;14.60;87.10
810;DHT22;387;48.772;9.186;2023-05-10T06:22:44;14.70;86.00
810;DHT22;387;48.772;9.186;2023-05-10T06:25:10;14.60;86.20
810;DHT22;387;48.772;9.186;2023-05-10T06:27:36;14.50;86.60
810;DHT22;387;48.772;9.186;2023-05-10T06:30:02;14.50;87.30
810;DHT22;387;48.772;9.186;2023-05-10T06:32:28;14.40;87.10
810;DHT22;387;48.772;9.186;2023-05-10T06:34:54;14.30;87.10
810;DHT22;387;48.772;9.186;2023-05-10T06:37:19;14.30;87.60
810;DHT22;387;48.772;9.186;2023-05-10T06:39:45;14.20;88.00
810;DHT22;387;48.772;9.186;2023-05-10T06:42:11;14.30;88.30
810;DHT22;387;48.772;9.186;2023-05-10T06:44:37;14.30;88.70
810;DHT22;387;48.772;9.186;2023-05-10T06:47:02;14.40;89.30
810;DHT22;387;48.772;9.186;2023-05-10T06:49:38;14.40;89.50
810;DHT22;387;48.772;9.186;2023-05-10T06:52:04;14.40;88.70
810;DHT22;387;48.772;9.186;2023-05-10T06:54:29;14.30;89.50
810;DHT22;387;48.772;9.186;2023-05-10T06:56:55;14.30;89.30
810;DHT22;387;48.772;9.186;2023-05-10T06:59:20;14.30;88.30
810;DHT22;387;48.772;9.186;2023-05-10T07:01:47;14.20;88.60
810;DHT22;387;48.772;9.186;2023-05-10T07:04:12;14.30;88.40
810;DHT22;387;48.772;9.186;2023-05-10T07:06:38;14.40;88.30
810;DHT22;387;48.772;9.186;2023-05-10T07:09:04;14.40;88.00
810;DHT22;387;48.772;9.186;2023-05-10T07:11:30;14.40;87.60
810;DHT22;387;48.772;9.186;2023-05-10T07:14:00;14.40;87.60
810;DHT22;387;48.772;9.186;2023-05-10T07:16:25;14.50;87.40
810;DHT22;387;48.772;9.186;2023-05-10T07:18:51;14.70;85.90
810;DHT22;387;48.772;9.186;2023-05-10T07:21:18;14.80;85.70
810;DHT22;387;48.772;9.186;2023-05-10T07:23:44;14.90;85.30
810;DHT22;387;48.772;9.186;2023-05-10T07:26:09;14.80;84.30
810;DHT22;387;48.772;9.186;2023-05-10T07:28:36;14.90;84.40
810;DHT22;387;48.772;9.186;2023-05-10T07:31:03;14.90;85.20
810;DHT22;387;48.772;9.186;2023-05-10T07:33:31;14.90;85.20
810;DHT22;387;48.772;9.186;2023-05-10T07:35:58;15.00;84.70
810;DHT22;387;48.772;9.186;2023-05-10T07:38:23;15.20;84.40
810;DHT22;387;48.772;9.186;2023-05-10T07:40:49;15.30;84.30
810;DHT22;387;48.772;9.186;2023-05-10T07:43:15;15.60;84.10
810;DHT22;387;48.772;9.186;2023-05-10T07:45:40;15.80;82.70
810;DHT22;387;48.772;9.186;2023-05-10T07:48:06;15.80;82.20
810;DHT22;387;48.772;9.186;2023-05-10T07:50:31;16.00;81.50
810;DHT22;387;48.772;9.186;2023-05-10T07:52:57;16.10;80.90
810;DHT22;387;48.772;9.186;2023-05-10T07:55:23;16.30;79.00
810;DHT22;387;48.772;9.186;2023-05-10T07:57:49;16.40;78.10
810;DHT22;387;48.772;9.186;2023-05-10T08:00:18;16.20;77.60
810;DHT22;387;48.772;9.186;2023-05-10T08:02:44;16.20;78.60
810;DHT22;387;48.772;9.186;2023-05-10T08:05:10;16.40;76.80
810;DHT22;387;48.772;9.186;2023-05-10T08:07:35;16.40;76.50
810;DHT22;387;48.772;9.186;2023-05-10T08:10:02;16.40;76.40
810;DHT22;387;48.772;9.186;2023-05-10T08:12:27;16.30;76.80
810;DHT22;387;48.772;9.186;2023-05-10T08:14:53;16.30;77.40
810;DHT22;387;48.772;9.186;2023-05-10T08:17:19;16.30;76.20
810;DHT22;387;48.772;9.186;2023-05-10T08:19:44;16.20;76.20
810;DHT22;387;48.772;9.186;2023-05-10T08:22:10;16.20;76.20
810;DHT22;387;48.772;9.186;2023-05-10T08:24:36;16.30;76.80
810;DHT22;387;48.772;9.186;2023-05-10T08:27:05;16.30;76.10
810;DHT22;387;48.772;9.186;2023-05-10T08:29:31;16.40;75.80
810;DHT22;387;48.772;9.186;2023-05-10T08:31:56;16.30;75.90
810;DHT22;387;48.772;9.186;2023-05-10T08:34:22;16.10;76.10
810;DHT22;387;48.772;9.186;2023-05-10T08:36:48;15.90;75.40
810;DHT22;387;48.772;9.186;2023-05-10T08:39:14;15.80;76.80
810;DHT22;387;48.772;9.186;2023-05-10T08:41:39;16.00;75.20
810;DHT22;387;48.772;9.186;2023-05-10T08:44:09;15.90;74.80
810;DHT22;387;48.772;9.186;2023-05-10T08:46:37;15.80;75.90
810;DHT22;387;48.772;9.186;2023-05-10T08:49:06;15.90;75.10
810;DHT22;387;48.772;9.186;2023-05-10T08:51:36;15.90;74.80
810;DHT22;387;48.772;9.186;2023-05-10T08:54:03;15.90;75.40
810;DHT22;387;48.772;9.186;2023-05-10T08:56:29;15.90;75.70
810;DHT22;387;48.772;9.186;2023-05-10T08:58:56;16.10;76.50
810;DHT22;387;48.772;9.186;2023-05-10T09:01:21;16.10;73.30
810;DHT22;387;48.772;9.186;2023-05-10T09:03:47;16.00;74.30
810;DHT22;387;48.772;9.186;2023-05-10T09:06:13;16.00;74.30
810;DHT22;387;48.772;9.186;2023-05-10T09:08:41;16.20;74.90
810;DHT22;387;48.772;9.186;2023-05-10T09:11:08;16.30;72.40
810;DHT22;387;48.772;9.186;2023-05-10T09:13:35;16.00;73.30
810;DHT22;387;48.772;9.186;2023-05-10T09:16:01;15.80;74.60
810;DHT22;387;48.772;9.186;2023-05-10T09:18:27;15.90;73.90
810;DHT22;387;48.772;9.186;2023-05-10T09:20:54;15.90;74.00
810;DHT22;387;48.772;9.186;2023-05-10T09:23:20;15.80;74.50
810;DHT22;387;48.772;9.186;2023-05-10T09:25:46;15.80;74.90
810;DHT22;387;48.772;9.186;2023-05-10T09:28:12;15.90;74.60
810;DHT22;387;48.772;9.186;2023-05-10T09:30:37;16.00;74.80
810;DHT22;387;48.772;9.186;2023-05-10T09:33:03;16.40;73.50
810;DHT22;387;48.772;9.186;2023-05-10T09:35:31;16.60;72.60
810;DHT22;387;48.772;9.186;2023-05-10T09:38:00;16.40;71.40
810;DHT22;387;48.772;9.186;2023-05-10T09:40:27;16.30;72.10
810;DHT22;387;48.772;9.186;2023-05-10T09:43:04;16.10;72.00
810;DHT22;387;48.772;9.186;2023-05-10T09:45:34;16.40;72.10
810;DHT22;387;48.772;9.186;2023-05-10T09:48:01;16.70;71.40
810;DHT22;387;48.772;9.186;2023-05-10T09:50:28;16.50;71.60
810;DHT22;387;48.772;9.186;2023-05-10T09:53:02;16.50;70.40
810;DHT22;387;48.772;9.186;2023-05-10T09:58:03;16.70;71.30
810;DHT22;387;48.772;9.186;2023-05-10T10:00:35;16.90;69.90
810;DHT22;387;48.772;9.186;2023-05-10T10:03:04;17.00;70.10
810;DHT22;387;48.772;9.186;2023-05-10T10:05:30;16.40;69.80
810;DHT22;387;48.772;9.186;2023-05-10T10:08:03;16.50;70.80
810;DHT22;387;48.772;9.186;2023-05-10T10:10:31;16.70;70.50
810;DHT22;387;48.772;9.186;2023-05-10T10:12:57;16.60;69.90
810;DHT22;387;48.772;9.186;2023-05-10T10:15:24;16.70;70.50
810;DHT22;387;48.772;9.186;2023-05-10T10:17:51;16.40;71.00
810;DHT22;387;48.772;9.186;2023-05-10T10:20:18;16.40;71.60
810;DHT22;387;48.772;9.186;2023-05-10T10:22:44;16.20;71.70
810;DHT22;387;48.772;9.186;2023-05-10T10:25:15;16.30;71.70
810;DHT22;387;48.772;9.186;2023-05-10T10:30:47;16.30;70.20
810;DHT22;387;48.772;9.186;2023-05-10T10:33:22;16.40;69.80
810;DHT22;387;48.772;9.186;2023-05-10T10:35:53;16.70;69.90
810;DHT22;387;48.772;9.186;2023-05-10T10:38:20;16.70;68.90
810;DHT22;387;48.772;9.186;2023-05-10T10:40:47;17.00;68.30
810;DHT22;387;48.772;9.186;2023-05-10T10:43:26;17.00;68.30
810;DHT22;387;48.772;9.186;2023-05-10T10:46:15;16.90;68.30
810;DHT22;387;48.772;9.186;2023-05-10T10:48:50;17.10;67.30
810;DHT22;387;48.772;9.186;2023-05-10T10:51:16;17.00;67.20
810;DHT22;387;48.772;9.186;2023-05-10T10:53:43;17.00;68.20
810;DHT22;387;48.772;9.186;2023-05-10T10:56:10;17.00;69.10
810;DHT22;387;48.772;9.186;2023-05-10T10:58:38;16.40;69.10
810;DHT22;387;48.772;9.186;2023-05-10T11:01:22;16.30;69.80
810;DHT22;387;48.772;9.186;2023-05-10T11:06:29;16.00;67.50
810;DHT22;387;48.772;9.186;2023-05-10T11:08:57;16.00;67.60
810;DHT22;387;48.772;9.186;2023-05-10T11:11:22;15.90;67.90
810;DHT22;387;48.772;9.186;2023-05-10T11:13:48;15.70;67.90
810;DHT22;387;48.772;9.186;2023-05-10T11:19:04;15.70;67.90
810;DHT22;387;48.772;9.186;2023-05-10T11:21:30;15.70;68.50
810;DHT22;387;48.772;9.186;2023-05-10T11:23:57;15.90;67.90
810;DHT22;387;48.772;9.186;2023-05-10T11:26:25;16.00;68.00
810;DHT22;387;48.772;9.186;2023-05-10T11:28:53;16.00;67.60
810;DHT22;387;48.772;9.186;2023-05-10T11:31:21;15.70;68.00
810;DHT22;387;48.772;9.186;2023-05-10T11:33:55;15.60;68.00
810;DHT22;387;48.772;9.186;2023-05-10T11:36:28;15.70;68.00
810;DHT22;387;48.772;9.186;2023-05-10T11:38:55;15.80;68.20
810;DHT22;387;48.772;9.186;2023-05-10T11:41:22;16.00;67.20
810;DHT22;387;48.772;9.186;2023-05-10T11:43:53;16.00;67.70
810;DHT22;387;48.772;9.186;2023-05-10T11:46:21;16.10;67.50
810;DHT22;387;48.772;9.186;2023-05-10T11:48:49;16.10;67.20
810;DHT22;387;48.772;9.186;2023-05-10T11:51:23;15.90;68.20
810;DHT22;387;48.772;9.186;2023-05-10T11:53:52;15.90;68.00
810;DHT22;387;48.772;9.186;2023-05-10T11:56:19;15.60;68.50
810;DHT22;387;48.772;9.186;2023-05-10T11:58:55;15.70;68.80
810;DHT22;387;48.772;9.186;2023-05-10T12:01:21;15.80;68.50
810;DHT22;387;48.772;9.186;2023-05-10T12:03:51;15.90;68.60
810;DHT22;387;48.772;9.186;2023-05-10T12:06:18;15.90;68.30
810;DHT22;387;48.772;9.186;2023-05-10T12:08:46;15.70;68.50
810;DHT22;387;48.772;9.186;2023-05-10T12:11:19;15.70;68.80
810;DHT22;387;48.772;9.186;2023-05-10T12:13:47;15.80;68.60
810;DHT22;387;48.772;9.186;2023-05-10T12:16:19;15.90;68.80
810;DHT22;387;48.772;9.186;2023-05-10T12:18:47;16.30;67.90
810;DHT22;387;48.772;9.186;2023-05-10T12:21:13;16.10;67.50
810;DHT22;387;48.772;9.186;2023-05-10T12:23:40;16.20;67.20
810;DHT22;387;48.772;9.186;2023-05-10T12:26:09;16.20;67.60
810;DHT22;387;48.772;9.186;2023-05-10T12:28:35;16.40;67.50
810;DHT22;387;48.772;9.186;2023-05-10T12:31:01;16.60;67.50
810;DHT22;387;48.772;9.186;2023-05-10T12:33:27;16.90;67.00
810;DHT22;387;48.772;9.186;2023-05-10T12:36:00;16.90;67.50
810;DHT22;387;48.772;9.186;2023-05-10T12:38:33;17.00;66.70
810;DHT22;387;48.772;9.186;2023-05-10T12:41:00;17.00;65.30
810;DHT22;387;48.772;9.186;2023-05-10T12:43:26;16.90;66.00
810;DHT22;387;48.772;9.186;2023-05-10T12:45:52;16.90;66.60
810;DHT22;387;48.772;9.186;2023-05-10T12:48:18;16.60;66.10
810;DHT22;387;48.772;9.186;2023-05-10T12:50:46;16.50;66.60
810;DHT22;387;48.772;9.186;2023-05-10T12:53:13;16.30;66.30
810;DHT22;387;48.772;9.186;2023-05-10T12:55:43;16.10;67.20
810;DHT22;387;48.772;9.186;2023-05-10T12:58:09;16.20;67.00
810;DHT22;387;48.772;9.186;2023-05-10T13:00:35;16.40;67.30
810;DHT22;387;48.772;9.186;2023-05-10T13:03:03;16.40;67.90
810;DHT22;387;48.772;9.186;2023-05-10T13:05:31;16.40;68.20
810;DHT22;387;48.772;9.186;2023-05-10T13:07:56;16.30;68.60
810;DHT22;387;48.772;9.186;2023-05-10T13:10:22;16.10;68.90
810;DHT22;387;48.772;9.186;2023-05-10T13:12:49;16.10;69.20
810;DHT22;387;48.772;9.186;2023-05-10T13:15:14;16.10;69.40
810;DHT22;387;48.772;9.186;2023-05-10T13:17:40;16.20;70.10
810;DHT22;387;48.772;9.186;2023-05-10T13:20:08;16.10;69.70
810;DHT22;387;48.772;9.186;2023-05-10T13:22:35;16.30;68.30
810;DHT22;387;48.772;9.186;2023-05-10T13:25:01;16.30;67.70
810;DHT22;387;48.772;9.186;2023-05-10T13:27:27;16.40;67.20
810;DHT22;387;48.772;9.186;2023-05-10T13:29:52;16.30;67.60
810;DHT22;387;48.772;9.186;2023-05-10T13:32:18;16.00;67.50
810;DHT22;387;48.772;9.186;2023-05-10T13:34:44;16.00;68.00
810;DHT22;387;48.772;9.186;2023-05-10T13:37:10;16.10;68.50
810;DHT22;387;48.772;9.186;2023-05-10T13:39:35;16.30;68.00
810;DHT22;387;48.772;9.186;2023-05-10T13:42:03;16.50;67.60
810;DHT22;387;48.772;9.186;2023-05-10T13:44:29;16.60;66.90
810;DHT22;387;48.772;9.186;2023-05-10T13:46:55;16.60;66.90
810;DHT22;387;48.772;9.186;2023-05-10T13:49:21;16.50;67.00
810;DHT22;387;48.772;9.186;2023-05-10T13:51:47;16.40;66.70
810;DHT22;387;48.772;9.186;2023-05-10T13:54:13;16.30;67.50
810;DHT22;387;48.772;9.186;2023-05-10T13:56:39;16.30;67.60
810;DHT22;387;48.772;9.186;2023-05-10T13:59:06;16.30;68.20
810;DHT22;387;48.772;9.186;2023-05-10T14:01:33;16.60;67.50
810;DHT22;387;48.772;9.186;2023-05-10T14:04:00;16.50;67.50
810;DHT22;387;48.772;9.186;2023-05-10T14:06:31;16.70;67.90
810;DHT22;387;48.772;9.186;2023-05-10T14:09:00;16.80;65.00
810;DHT22;387;48.772;9.186;2023-05-10T14:11:29;17.00;65.10
810;DHT22;387;48.772;9.186;2023-05-10T14:13:55;17.10;63.50
810;DHT22;387;48.772;9.186;2023-05-10T14:16:53;17.30;62.80
810;DHT22;387;48.772;9.186;2023-05-10T14:19:29;17.40;61.30
810;DHT22;387;48.772;9.186;2023-05-10T14:25:21;17.00;62.80
810;DHT22;387;48.772;9.186;2023-05-10T14:27:47;17.40;62.00
810;DHT22;387;48.772;9.186;2023-05-10T14:30:13;17.50;61.20
810;DHT22;387;48.772;9.186;2023-05-10T14:32:39;17.50;60.60
810;DHT22;387;48.772;9.186;2023-05-10T14:35:05;17.60;60.60
810;DHT22;387;48.772;9.186;2023-05-10T14:37:31;17.50;61.30
810;DHT22;387;48.772;9.186;2023-05-10T14:39:57;17.60;61.60
810;DHT22;387;48.772;9.186;2023-05-10T14:42:23;17.40;61.90
810;DHT22;387;48.772;9.186;2023-05-10T14:44:49;17.70;62.30
810;DHT22;387;48.772;9.186;2023-05-10T14:47:14;17.90;60.40
810;DHT22;387;48.772;9.186;2023-05-10T14:49:40;17.60;61.20
810;DHT22;387;48.772;9.186;2023-05-10T14:52:06;17.70;61.60
810;DHT22;387;48.772;9.186;2023-05-10T14:54:35;17.60;61.60
810;DHT22;387;48.772;9.186;2023-05-10T14:57:00;17.40;62.20
810;DHT22;387;48.772;9.186;2023-05-10T14:59:26;17.60;60.70
810;DHT22;387;48.772;9.186;2023-05-10T15:01:51;17.50;61.50
810;DHT22;387;48.772;9.186;2023-05-10T15:04:17;17.60;62.00
810;DHT22;387;48.772;9.186;2023-05-10T15:06:43;17.90;61.30
810;DHT22;387;48.772;9.186;2023-05-10T15:09:09;18.10;61.90
810;DHT22;387;48.772;9.186;2023-05-10T15:11:35;18.10;60.60
810;DHT22;387;48.772;9.186;2023-05-10T15:14:01;18.10;60.60
810;DHT22;387;48.772;9.186;2023-05-10T15:16:27;18.00;61.60
810;DHT22;387;48.772;9.186;2023-05-10T15:18:52;17.10;63.10
810;DHT22;387;48.772;9.186;2023-05-10T15:21:18;16.70;64.40
810;DHT22;387;48.772;9.186;2023-05-10T15:23:44;16.80;64.50
810;DHT22;387;48.772;9.186;2023-05-10T15:26:09;16.90;64.80
810;DHT22;387;48.772;9.186;2023-05-10T15:28:35;17.30;65.10
810;DHT22;387;48.772;9.186;2023-05-10T15:31:01;16.90;64.40
810;DHT22;387;48.772;9.186;2023-05-10T15:33:26;17.10;64.70
810;DHT22;387;48.772;9.186;2023-05-10T15:35:52;16.70;64.80
810;DHT22;387;48.772;9.186;2023-05-10T15:38:19;16.60;65.60
810;DHT22;387;48.772;9.186;2023-05-10T15:40:44;16.80;65.70
810;DHT22;387;48.772;9.186;2023-05-10T15:43:10;16.90;65.80
810;DHT22;387;48.772;9.186;2023-05-10T15:45:36;17.20;64.70
810;DHT22;387;48.772;9.186;2023-05-10T15:48:02;17.40;63.70
810;DHT22;387;48.772;9.186;2023-05-10T15:50:27;17.40;62.50
810;DHT22;387;48.772;9.186;2023-05-10T15:52:53;17.30;62.80
810;DHT22;387;48.772;9.186;2023-05-10T15:55:19;17.40;62.90
810;DHT22;387;48.772;9.186;2023-05-10T15:57:47;17.40;62.90
810;DHT22;387;48.772;9.186;2023-05-10T16:00:13;17.40;61.70
810;DHT22;387;48.772;9.186;2023-05-10T16:02:40;17.40;62.20
810;DHT22;387;48.772;9.186;2023-05-10T16:05:05;17.20;61.70
810;DHT22;387;48.772;9.186;2023-05-10T16:07:32;16.90;61.00
810;DHT22;387;48.772;9.186;2023-05-10T16:09:57;17.00;61.60
810;DHT22;387;48.772;9.186;2023-05-10T16:12:23;17.20;61.60
810;DHT22;387;48.772;9.186;2023-05-10T16:14:49;17.10;61.00
810;DHT22;387;48.772;9.186;2023-05-10T16:17:14;17.00;61.20
810;DHT22;387;48.772;9.186;2023-05-10T16:19:40;17.00;61.70
810;DHT22;387;48.772;9.186;2023-05-10T16:22:06;17.10;61.90
810;DHT22;387;48.772;9.186;2023-05-10T16:24:32;17.30;61.00
810;DHT22;387;48.772;9.186;2023-05-10T16:26:57;17.20;61.00
810;DHT22;387;48.772;9.186;2023-05-10T16:29:23;17.30;60.00
810;DHT22;387;48.772;9.186;2023-05-10T16:31:49;17.30;60.70
810;DHT22;387;48.772;9.186;2023-05-10T16:34:14;17.20;60.60
810;DHT22;387;48.772;9.186;2023-05-10T16:36:40;17.00;61.30
810;DHT22;387;48.772;9.186;2023-05-10T16:39:06;17.20;61.20
810;DHT22;387;48.772;9.186;2023-05-10T16:41:34;17.00;61.20
810;DHT22;387;48.772;9.186;2023-05-10T16:44:00;17.10;60.60
810;DHT22;387;48.772;9.186;2023-05-10T16:46:26;17.00;60.90
810;DHT22;387;48.772;9.186;2023-05-10T16:48:51;16.90;61.60
810;DHT22;387;48.772;9.186;2023-05-10T16:51:17;16.80;62.20
810;DHT22;387;48.772;9.186;2023-05-10T16:53:46;16.80;62.20
810;DHT22;387;48.772;9.186;2023-05-10T16:56:14;16.80;62.00